Terminal Aerodrome Forecast
Issued by NWS

Home | Current Version | Previous Version | Text Only | Print | Product List | Glossary On
Versions: 1 2 3 4 5 6 7 8 9 10 11 12 13 14 15 16 17 18 19 20 21 22 23 24 25 26 27 28 29 30
000
FTUS45 KGJT 011129
TAFEGE
TAF
KEGE 011129Z 0112/0212 00000KT P6SM BKN110
     FM011800 24012G22KT P6SM SCT100 BKN250
     FM012200 25015G25KT P6SM VCSH BKN100
     FM020300 23010KT P6SM BKN100
     FM020700 24006KT P6SM BKN250
      AMD LTD TO CLD VIS AND WIND TIL 011400=

USA.gov is the U.S. government's official web portal to all federal, state and local government web resources and services.